logo
App data

Alien Shooter 2 Conscription

The Great War has begun! The world population capable of functioning is mobilized to serve in the army and the outcome depends on you!
Store | Hub | SteamDB | Site
Developer: Sigma Team Inc. Publisher: Sigma Team Inc.
Genre: Action, Indie, RPG
Languages: English, Russian
Tags: Action (40), Indie (35), RPG (32), Shooter (18), Singleplayer (17), Top-Down Shooter (13), Aliens (9), Gore (8), Isometric (7)
Category: Single-player, Steam Trading Cards
Release date: May 18, 2012
Price: $9.99
Old userscore: 82% Owners: 100,000 .. 200,000
Followers: 1,112
Peak concurrent players yesterday: 9
YouTube stats: 201 views and 9 comments for top 50 videos uploaded last week, 1 new videos uploaded yesterday.
Playtime total: 01:28 (average) 01:28 (median)

Steam Spy is still in beta, so expect major bugs.

Owners data:

Access restricted.

This feature is only available to users with special access rights. Sorry.

If you want to proceed, you need to register or log in first and then back Steam Spy on Patreon. Look for Indie or Pro pledge.

Don't forget to use the same email as on Steam Spy!

If you've recently backed Steam Spy on Patreon, please note, that it might take around 15 minutes for your access rights to sync. In most cases you'll need to re-login on Steam Spy too.

Audience in 2 weeks:

Access restricted.

This feature is only available to users with special access rights. Sorry.

If you want to proceed, you need to register or log in first and then back Steam Spy on Patreon. Look for Indie or Pro pledge.

Don't forget to use the same email as on Steam Spy!

If you've recently backed Steam Spy on Patreon, please note, that it might take around 15 minutes for your access rights to sync. In most cases you'll need to re-login on Steam Spy too.

Peak daily concurrent players:

CCU data courtesy of SteamDB. Used with permission.

Hourly concurrent players:

Daily Twitch stats:

Hourly Twitch stats:

Followers over time

Access restricted.

This feature is only available to users with special access rights. Sorry.

If you want to proceed, you need to register or log in first and then back Steam Spy on Patreon. Look for Indie or Pro pledge.

Don't forget to use the same email as on Steam Spy!

If you've recently backed Steam Spy on Patreon, please note, that it might take around 15 minutes for your access rights to sync. In most cases you'll need to re-login on Steam Spy too.

Views for top 50 videos on YouTube for this game:

Games similar to this one:

# Game Release date
Price
Score rank
(Userscore / Metascore)
Owners
Players
Playtime (Median)
1 UNLOVED Sep 29, 2016 $4.99N/A (N/A)100,000 .. 200,0000%00:00 (00:00)
2 David. Mar 14, 2014 $1.99N/A (N/A)100,000 .. 200,0000%00:00 (00:00)
3 Dustoff Heli Rescue Mar 6, 2015 $3.99N/A (N/A)20,000 .. 50,0000%00:00 (00:00)
4 The Tiny Tale 2 Jan 30, 2015 $6.99N/A (N/A)0 .. 20,0000%00:00 (00:00)
5 Armed with Wings: Rearmed Jun 1, 2017 $9.99N/A (N/A)20,000 .. 50,0000%00:00 (00:00)
6 Death Ray Manta SE Sep 17, 2015 $1.99N/A (N/A)20,000 .. 50,0000%00:00 (00:00)
7 Zombie Vikings Dec 7, 2015 $11.99N/A (N/A/74%)50,000 .. 100,0000%00:00 (00:00)
8 Velocity 2X Aug 19, 2015 $19.99N/A (N/A)50,000 .. 100,0000%00:00 (00:00)
9 Raptor: Call of The Shadows - 2015 Edition Apr 1, 1994 $4.99N/A (N/A)50,000 .. 100,0000%00:00 (00:00)
10 Robotex Nov 18, 2014 $4.99N/A (N/A)200,000 .. 500,0000%00:00 (00:00)
11 BossConstructor Oct 24, 2016 $14.99N/A (N/A)20,000 .. 50,0000%00:00 (00:00)
12 Guns, Gore & Cannoli Apr 30, 2015 $9.99N/A (N/A/80%)100,000 .. 200,0000%00:00 (00:00)
13 Supercharged Robot VULKAISER Jun 4, 2015 $2.49N/A (N/A)20,000 .. 50,0000%00:00 (00:00)
14 Wickland Nov 14, 2014 $0.99N/A (N/A)50,000 .. 100,0000%00:00 (00:00)
15 Toren May 11, 2015 $9.99N/A (N/A/57%)100,000 .. 200,0000%00:00 (00:00)
16 Fabula Mortis Oct 27, 2014 $7.99N/A (N/A)20,000 .. 50,0000%00:00 (00:00)
17 Deadlings: Rotten Edition Nov 11, 2014 $3.99N/A (N/A)50,000 .. 100,0000%00:00 (00:00)
18 Odallus: The Dark Call Jul 15, 2015 $9.99N/A (N/A/80%)50,000 .. 100,0000%00:00 (00:00)
19 Attractio Jan 18, 2016 N/AN/A (N/A)20,000 .. 50,0000%00:00 (00:00)
20 Woah Dave! Oct 30, 2014 $4.99N/A (N/A)20,000 .. 50,0000%00:00 (00:00)
21 Obludia Jul 18, 2014 $2.99N/A (N/A)20,000 .. 50,0000%00:00 (00:00)
22 Jet Gunner Aug 4, 2014 $0.99N/A (N/A)200,000 .. 500,0000%00:00 (00:00)
23 Bird Assassin Feb 8, 2011 $1.99N/A (N/A)100,000 .. 200,0000%00:00 (00:00)
24 Little Big Adventure - Enhanced Edition Oct 14, 1994 $5.99N/A (N/A)20,000 .. 50,0000%00:00 (00:00)
25 Battle Bruise Apr 22, 2017 $0.99N/A (N/A)20,000 .. 50,0000%00:00 (00:00)
26 Wonder Boy: The Dragon's Trap Jun 8, 2017 $19.99N/A (N/A)100,000 .. 200,0000%00:00 (00:00)
27 Unbox: Newbie's Adventure Sep 5, 2016 $19.99N/A (N/A/68%)50,000 .. 100,0000%00:00 (00:00)
28 Mr. Shifty Apr 13, 2017 $7.49N/A (N/A)100,000 .. 200,0000%00:00 (00:00)
29 Legends of the Universe - StarCore Jul 25, 2016 $0.49N/A (N/A)20,000 .. 50,0000%00:00 (00:00)
30 Prison Run and Gun Mar 16, 2016 $1.49N/A (N/A)20,000 .. 50,0000%00:00 (00:00)
31 Dinocide Jan 21, 2016 $9.99N/A (N/A/51%)20,000 .. 50,0000%00:00 (00:00)
32 12 is Better Than 6 Nov 20, 2015 $9.99N/A (N/A/74%)500,000 .. 1,000,0000%00:00 (00:00)
33 Run Rabbit Run Mar 31, 2016 $3.99N/A (N/A)0 .. 20,0000%00:00 (00:00)
34 Little Big Adventure 2 Oct 20, 2015 $3.99N/A (N/A)50,000 .. 100,0000%00:00 (00:00)
35 The Stalin Subway Oct 5, 2006 $3.99N/A (N/A)100,000 .. 200,0000%00:00 (00:00)
36 Bleed 2 Feb 8, 2017 $9.99N/A (N/A/83%)50,000 .. 100,0000%00:00 (00:00)
37 Bear Simulator Feb 26, 2016 $14.99N/A (N/A)20,000 .. 50,0000%00:00 (00:00)
38 Toy Odyssey: The Lost and Found Sep 20, 2016 $14.99N/A (N/A/66%)20,000 .. 50,0000%00:00 (00:00)
39 Vendetta - Curse of Raven's Cry Nov 20, 2015 $7.49N/A (N/A)200,000 .. 500,0000%00:00 (00:00)
40 Anima Gate of Memories Jun 2, 2016 $5.99N/A (N/A)100,000 .. 200,0000%00:00 (00:00)
41 Demons with Shotguns Apr 25, 2016 $9.99N/A (N/A)0 .. 20,0000%00:00 (00:00)
42 Mighty Switch Force! Hyper Drive Edition Jun 25, 2015 $9.99N/A (N/A/85%)20,000 .. 50,0000%00:00 (00:00)
43 Super Furball May 13, 2014 $3.99N/A (N/A)0 .. 20,0000%00:00 (00:00)
44 Rad Rodgers: World One Dec 1, 2016 $19.99N/A (N/A/72%)0 .. 20,0000%00:00 (00:00)
45 Planet of the Eyes Aug 24, 2015 $9.99N/A (N/A/66%)50,000 .. 100,0000%00:00 (00:00)
46 Rain Blood Chronicles: Mirage Nov 11, 2013 $4.99N/A (N/A/68%)0 .. 20,0000%00:00 (00:00)
47 The Dishwasher: Vampire Smile May 12, 2017 $9.99N/A (N/A)20,000 .. 50,0000%00:00 (00:00)
48 Meltdown Jun 5, 2014 $6.99N/A (N/A)100,000 .. 200,0000%00:00 (00:00)
49 Guns n Zombies Oct 30, 2014 $7.99N/A (N/A)100,000 .. 200,0000%00:00 (00:00)
50 Pixel Boy and the Ever Expanding Dungeon May 30, 2014 N/AN/A (N/A)20,000 .. 50,0000%00:00 (00:00)
51 Last Knight: Rogue Rider Edition Oct 3, 2014 $7.99N/A (N/A)20,000 .. 50,0000%00:00 (00:00)
52 Wooden Sen'SeY Dec 5, 2013 $9.99N/A (N/A)20,000 .. 50,0000%00:00 (00:00)
53 Blood Knights Nov 13, 2013 $9.99N/A (N/A)50,000 .. 100,0000%00:00 (00:00)
54 Hot Tin Roof: The Cat That Wore A Fedora Feb 20, 2015 $14.99N/A (N/A/66%)50,000 .. 100,0000%00:00 (00:00)
55 Stick it to The Man! Dec 13, 2013 $7.99N/A (N/A/83%)20,000 .. 50,0000%00:00 (00:00)
56 VelocityUltra Dec 12, 2013 $9.99N/A (N/A)20,000 .. 50,0000%00:00 (00:00)
57 Ku: Shroud of the Morrigan Mar 17, 2014 $4.99N/A (N/A)20,000 .. 50,0000%00:00 (00:00)
58 Fist Puncher Jun 21, 2013 $9.99N/A (N/A/73%)20,000 .. 50,0000%00:00 (00:00)
59 Leisure Suit Larry in the Land of the Lounge Lizards: Reloaded Jun 27, 2013 N/AN/A (N/A)20,000 .. 50,0000%00:00 (00:00)
60 Droid Assault Jan 9, 2013 $9.99N/A (N/A)50,000 .. 100,0000%00:00 (00:00)
61 Noitu Love 2: Devolution Apr 23, 2012 $4.99N/A (N/A/80%)50,000 .. 100,0000%00:00 (00:00)
62 A.R.E.S.: Extinction Agenda Jan 20, 2011 $4.99N/A (N/A/68%)50,000 .. 100,0000%00:00 (00:00)
63 The First Templar - Steam Special Edition May 12, 2011 $9.99N/A (N/A/57%)100,000 .. 200,0000%00:00 (00:00)
64 Devil May Cry 4 Dec 22, 2009 $19.99N/A (N/A/78%)200,000 .. 500,0000%00:00 (00:00)
65 Painkiller: Black Edition Apr 12, 2004 $9.99N/A (N/A)100,000 .. 200,0000%00:00 (00:00)
66 Dark Sector Mar 24, 2009 $9.99N/A (N/A/66%)50,000 .. 100,0000%00:00 (00:00)
67 Rocket Knight May 11, 2010 $14.99N/A (N/A/63%)0 .. 20,0000%00:00 (00:00)
68 Hive Jump Jan 18, 2017 $19.99N/A (N/A)100,000 .. 200,0000%00:00 (00:00)
69 The Stalin Subway: Red Veil Oct 5, 2006 $2.99N/A (N/A)50,000 .. 100,0000%00:00 (00:00)
70 The Way May 20, 2016 $14.99N/A (N/A/67%)100,000 .. 200,0000%00:00 (00:00)
71 Onikira - Demon Killer Aug 27, 2015 $13.99N/A (N/A)100,000 .. 200,0000%00:00 (00:00)
72 Overlord: Fellowship of Evil Oct 19, 2015 $9.99N/A (N/A)50,000 .. 100,0000%00:00 (00:00)
73 Heavy Fire: Afghanistan Aug 15, 2014 $2.99N/A (N/A)20,000 .. 50,0000%00:00 (00:00)
74 Momodora III Jul 1, 2014 $1.99N/A (N/A)50,000 .. 100,0000%00:00 (00:00)
75 Psichodelya Aug 8, 2014 N/AN/A (N/A)20,000 .. 50,0000%00:00 (00:00)
76 Viktor Jun 13, 2014 $7.99N/A (N/A)20,000 .. 50,0000%00:00 (00:00)
77 Magnetic By Nature Nov 10, 2014 $0.99N/A (N/A)0 .. 20,0000%00:00 (00:00)
78 MIND: Path to Thalamus Enhanced Edition Aug 5, 2014 $11.99N/A (N/A/75%)100,000 .. 200,0000%00:00 (00:00)
79 BloodRayne 2 (Legacy) Aug 2, 2005 N/AN/A (N/A/67%)50,000 .. 100,0000%00:00 (00:00)
80 Collapse Sep 25, 2008 $19.99N/A (N/A)100,000 .. 200,0000%00:00 (00:00)
81 El Matador Apr 3, 2014 $3.99N/A (N/A/54%)50,000 .. 100,0000%00:00 (00:00)
82 Strike Suit Zero: Director's Cut Apr 8, 2014 $19.99N/A (N/A)50,000 .. 100,0000%00:00 (00:00)
83 Shadow Ops: Red Mercury Jul 2, 2014 $6.99N/A (N/A/61%)50,000 .. 100,0000%00:00 (00:00)
84 Stick 'Em Up 2: Paper Adventures Jul 27, 2015 $2.99N/A (N/A)20,000 .. 50,0000%00:00 (00:00)
85 Woolfe - The Red Hood Diaries Mar 17, 2015 $9.99N/A (N/A/55%)100,000 .. 200,0000%00:00 (00:00)
86 Devil's Dare 悪魔の挑戦 Oct 21, 2014 $12.99N/A (N/A)20,000 .. 50,0000%00:00 (00:00)
87 GIGANTIC ARMY Mar 6, 2014 $2.99N/A (N/A)50,000 .. 100,0000%00:00 (00:00)
88 RIVE: Wreck, Hack, Die, Retry! Sep 13, 2016 $14.99N/A (N/A)100,000 .. 200,0000%00:00 (00:00)
89 Shadow Blade: Reload Aug 10, 2015 $9.99N/A (N/A/70%)20,000 .. 50,0000%00:00 (00:00)

Tags over time:

Access restricted.

This feature is only available to users with special access rights. Sorry.

If you want to proceed, you need to register or log in first and then back Steam Spy on Patreon. Look for Indie or Pro pledge.

Don't forget to use the same email as on Steam Spy!

If you've recently backed Steam Spy on Patreon, please note, that it might take around 15 minutes for your access rights to sync. In most cases you'll need to re-login on Steam Spy too.

Owners of this game also own:

Access restricted.

This feature is only available to users with special access rights. Sorry.

If you want to proceed, you need to register or log in first and then back Steam Spy on Patreon. Look for Indie or Pro pledge.

Don't forget to use the same email as on Steam Spy!

If you've recently backed Steam Spy on Patreon, please note, that it might take around 15 minutes for your access rights to sync. In most cases you'll need to re-login on Steam Spy too.

Playtime distribution:

Access restricted.

This feature is only available to users with special access rights. Sorry.

If you want to proceed, you need to register or log in first and then back Steam Spy on Patreon. Look for Indie or Pro pledge.

Don't forget to use the same email as on Steam Spy!

If you've recently backed Steam Spy on Patreon, please note, that it might take around 15 minutes for your access rights to sync. In most cases you'll need to re-login on Steam Spy too.

Playtime (2 weeks):

Access restricted.

This feature is only available to users with special access rights. Sorry.

If you want to proceed, you need to register or log in first and then back Steam Spy on Patreon. Look for Indie or Pro pledge.

Don't forget to use the same email as on Steam Spy!

If you've recently backed Steam Spy on Patreon, please note, that it might take around 15 minutes for your access rights to sync. In most cases you'll need to re-login on Steam Spy too.

User reviews:

Login required.

Please register or log in to see this information.